sensor_id;sensor_type;location;lat;lon;timestamp;temperature;humidity
19920;DHT22;10122;50.074;19.920;2023-02-22T00:00:40;7.80;99.90
19920;DHT22;10122;50.074;19.920;2023-02-22T00:03:23;7.80;99.90
19920;DHT22;10122;50.074;19.920;2023-02-22T00:06:03;7.70;99.90
19920;DHT22;10122;50.074;19.920;2023-02-22T00:08:34;7.70;99.90
19920;DHT22;10122;50.074;19.920;2023-02-22T00:11:05;7.70;99.90
19920;DHT22;10122;50.074;19.920;2023-02-22T00:13:33;7.70;99.90
19920;DHT22;10122;50.074;19.920;2023-02-22T00:16:00;7.70;99.90
19920;DHT22;10122;50.074;19.920;2023-02-22T00:18:26;7.80;99.90
19920;DHT22;10122;50.074;19.920;2023-02-22T00:20:54;7.70;99.90
19920;DHT22;10122;50.074;19.920;2023-02-22T00:23:21;7.70;99.90
19920;DHT22;10122;50.074;19.920;2023-02-22T00:25:48;7.60;99.90
19920;DHT22;10122;50.074;19.920;2023-02-22T00:28:15;7.70;99.90
19920;DHT22;10122;50.074;19.920;2023-02-22T00:30:41;7.60;99.90
19920;DHT22;10122;50.074;19.920;2023-02-22T00:33:09;7.60;99.90
19920;DHT22;10122;50.074;19.920;2023-02-22T00:35:35;7.60;99.90
19920;DHT22;10122;50.074;19.920;2023-02-22T00:38:02;7.60;99.90
19920;DHT22;10122;50.074;19.920;2023-02-22T00:40:31;7.50;99.90
19920;DHT22;10122;50.074;19.920;2023-02-22T00:42:58;7.50;99.90
19920;DHT22;10122;50.074;19.920;2023-02-22T00:45:26;7.50;99.90
19920;DHT22;10122;50.074;19.920;2023-02-22T00:47:52;7.50;99.90
19920;DHT22;10122;50.074;19.920;2023-02-22T00:50:19;7.40;99.90
19920;DHT22;10122;50.074;19.920;2023-02-22T00:52:45;7.40;99.90
19920;DHT22;10122;50.074;19.920;2023-02-22T00:55:21;7.40;99.90
19920;DHT22;10122;50.074;19.920;2023-02-22T00:57:48;7.40;99.90
19920;DHT22;10122;50.074;19.920;2023-02-22T01:02:48;7.50;99.90
19920;DHT22;10122;50.074;19.920;2023-02-22T01:05:19;7.50;99.90
19920;DHT22;10122;50.074;19.920;2023-02-22T01:07:46;7.50;99.90
19920;DHT22;10122;50.074;19.920;2023-02-22T01:10:13;7.50;99.90
19920;DHT22;10122;50.074;19.920;2023-02-22T01:12:39;7.50;99.90
19920;DHT22;10122;50.074;19.920;2023-02-22T01:15:07;7.60;99.90
19920;DHT22;10122;50.074;19.920;2023-02-22T01:17:35;7.60;99.90
19920;DHT22;10122;50.074;19.920;2023-02-22T01:20:02;7.60;99.90
19920;DHT22;10122;50.074;19.920;2023-02-22T01:22:31;7.60;99.90
19920;DHT22;10122;50.074;19.920;2023-02-22T01:24:57;7.60;99.90
19920;DHT22;10122;50.074;19.920;2023-02-22T01:27:23;7.50;99.90
19920;DHT22;10122;50.074;19.920;2023-02-22T01:29:48;7.50;99.90
19920;DHT22;10122;50.074;19.920;2023-02-22T01:32:14;7.60;99.90
19920;DHT22;10122;50.074;19.920;2023-02-22T01:34:40;7.60;99.90
19920;DHT22;10122;50.074;19.920;2023-02-22T01:37:06;7.50;99.90
19920;DHT22;10122;50.074;19.920;2023-02-22T01:39:32;7.60;99.90
19920;DHT22;10122;50.074;19.920;2023-02-22T01:41:58;7.60;99.90
19920;DHT22;10122;50.074;19.920;2023-02-22T01:44:29;7.60;99.90
19920;DHT22;10122;50.074;19.920;2023-02-22T01:46:56;7.60;99.90
19920;DHT22;10122;50.074;19.920;2023-02-22T01:49:24;7.60;99.90
19920;DHT22;10122;50.074;19.920;2023-02-22T01:51:52;7.50;99.90
19920;DHT22;10122;50.074;19.920;2023-02-22T01:54:32;7.60;99.90
19920;DHT22;10122;50.074;19.920;2023-02-22T01:57:15;7.60;99.90
19920;DHT22;10122;50.074;19.920;2023-02-22T01:59:45;7.50;99.90
19920;DHT22;10122;50.074;19.920;2023-02-22T02:02:13;7.50;99.90
19920;DHT22;10122;50.074;19.920;2023-02-22T02:04:39;7.40;99.90
19920;DHT22;10122;50.074;19.920;2023-02-22T02:07:09;7.50;99.90
19920;DHT22;10122;50.074;19.920;2023-02-22T02:09:45;7.40;99.90
19920;DHT22;10122;50.074;19.920;2023-02-22T02:12:14;7.50;99.90
19920;DHT22;10122;50.074;19.920;2023-02-22T02:14:41;7.40;99.90
19920;DHT22;10122;50.074;19.920;2023-02-22T02:17:12;7.50;99.90
19920;DHT22;10122;50.074;19.920;2023-02-22T02:33:15;7.50;99.90
19920;DHT22;10122;50.074;19.920;2023-02-22T02:36:01;7.50;99.90
19920;DHT22;10122;50.074;19.920;2023-02-22T02:38:33;7.50;99.90
19920;DHT22;10122;50.074;19.920;2023-02-22T02:41:18;7.40;99.90
19920;DHT22;10122;50.074;19.920;2023-02-22T02:44:00;7.40;99.90
19920;DHT22;10122;50.074;19.920;2023-02-22T02:46:53;7.40;99.90
19920;DHT22;10122;50.074;19.920;2023-02-22T02:49:30;7.50;99.90
19920;DHT22;10122;50.074;19.920;2023-02-22T02:51:59;7.40;99.90
19920;DHT22;10122;50.074;19.920;2023-02-22T02:54:25;7.50;99.90
19920;DHT22;10122;50.074;19.920;2023-02-22T02:56:52;7.50;99.90
19920;DHT22;10122;50.074;19.920;2023-02-22T02:59:26;7.50;99.90
19920;DHT22;10122;50.074;19.920;2023-02-22T03:01:56;7.50;99.90
19920;DHT22;10122;50.074;19.920;2023-02-22T03:04:49;7.40;99.90
19920;DHT22;10122;50.074;19.920;2023-02-22T03:10:26;7.40;99.90
19920;DHT22;10122;50.074;19.920;2023-02-22T03:13:08;7.50;99.90
19920;DHT22;10122;50.074;19.920;2023-02-22T03:15:51;7.40;99.90
19920;DHT22;10122;50.074;19.920;2023-02-22T03:21:28;7.40;99.90
19920;DHT22;10122;50.074;19.920;2023-02-22T03:24:05;7.40;99.90
19920;DHT22;10122;50.074;19.920;2023-02-22T03:26:39;7.40;99.90
19920;DHT22;10122;50.074;19.920;2023-02-22T03:29:07;7.40;99.90
19920;DHT22;10122;50.074;19.920;2023-02-22T03:31:38;7.40;99.90
19920;DHT22;10122;50.074;19.920;2023-02-22T03:34:17;7.40;99.90
19920;DHT22;10122;50.074;19.920;2023-02-22T03:36:58;7.30;99.90
19920;DHT22;10122;50.074;19.920;2023-02-22T03:39:25;7.30;99.90
19920;DHT22;10122;50.074;19.920;2023-02-22T03:42:38;7.20;99.90
19920;DHT22;10122;50.074;19.920;2023-02-22T03:44:45;7.30;99.90
19920;DHT22;10122;50.074;19.920;2023-02-22T03:47:17;7.30;99.90
19920;DHT22;10122;50.074;19.920;2023-02-22T03:49:53;7.20;99.90
19920;DHT22;10122;50.074;19.920;2023-02-22T03:52:20;7.20;99.90
19920;DHT22;10122;50.074;19.920;2023-02-22T03:54:51;7.20;99.90
19920;DHT22;10122;50.074;19.920;2023-02-22T03:57:25;7.20;99.90
19920;DHT22;10122;50.074;19.920;2023-02-22T03:59:51;7.20;99.90
19920;DHT22;10122;50.074;19.920;2023-02-22T04:02:17;7.20;99.90
19920;DHT22;10122;50.074;19.920;2023-02-22T04:04:46;7.20;99.90
19920;DHT22;10122;50.074;19.920;2023-02-22T04:07:13;7.20;99.90
19920;DHT22;10122;50.074;19.920;2023-02-22T04:09:38;7.20;99.90
19920;DHT22;10122;50.074;19.920;2023-02-22T04:12:04;7.10;99.90
19920;DHT22;10122;50.074;19.920;2023-02-22T04:14:30;7.20;99.90
19920;DHT22;10122;50.074;19.920;2023-02-22T04:16:56;7.10;99.90
19920;DHT22;10122;50.074;19.920;2023-02-22T04:19:23;7.10;99.90
19920;DHT22;10122;50.074;19.920;2023-02-22T04:21:48;7.10;99.90
19920;DHT22;10122;50.074;19.920;2023-02-22T04:24:14;7.10;99.90
19920;DHT22;10122;50.074;19.920;2023-02-22T04:26:40;7.10;99.90
19920;DHT22;10122;50.074;19.920;2023-02-22T04:29:06;7.10;99.90
19920;DHT22;10122;50.074;19.920;2023-02-22T04:31:32;7.10;99.90
19920;DHT22;10122;50.074;19.920;2023-02-22T04:33:59;7.10;99.90
19920;DHT22;10122;50.074;19.920;2023-02-22T04:36:25;7.10;99.90
19920;DHT22;10122;50.074;19.920;2023-02-22T04:38:52;7.10;99.90
19920;DHT22;10122;50.074;19.920;2023-02-22T04:41:19;7.10;99.90
19920;DHT22;10122;50.074;19.920;2023-02-22T04:43:45;7.10;99.90
19920;DHT22;10122;50.074;19.920;2023-02-22T04:46:12;7.10;99.90
19920;DHT22;10122;50.074;19.920;2023-02-22T04:48:38;7.10;99.90
19920;DHT22;10122;50.074;19.920;2023-02-22T04:51:04;7.10;99.90
19920;DHT22;10122;50.074;19.920;2023-02-22T04:53:29;7.10;99.90
19920;DHT22;10122;50.074;19.920;2023-02-22T04:55:55;7.00;99.90
19920;DHT22;10122;50.074;19.920;2023-02-22T04:58:21;7.00;99.90
19920;DHT22;10122;50.074;19.920;2023-02-22T05:00:47;7.00;99.90
19920;DHT22;10122;50.074;19.920;2023-02-22T05:03:12;7.00;99.90
19920;DHT22;10122;50.074;19.920;2023-02-22T05:05:38;7.00;99.90
19920;DHT22;10122;50.074;19.920;2023-02-22T05:08:04;7.00;99.90
19920;DHT22;10122;50.074;19.920;2023-02-22T05:10:30;7.00;99.90
19920;DHT22;10122;50.074;19.920;2023-02-22T05:12:55;7.00;99.90
19920;DHT22;10122;50.074;19.920;2023-02-22T05:15:22;7.00;99.90
19920;DHT22;10122;50.074;19.920;2023-02-22T05:17:50;6.90;99.90
19920;DHT22;10122;50.074;19.920;2023-02-22T05:22:46;7.00;99.90
19920;DHT22;10122;50.074;19.920;2023-02-22T05:25:11;7.00;99.90
19920;DHT22;10122;50.074;19.920;2023-02-22T05:27:37;7.00;99.90
19920;DHT22;10122;50.074;19.920;2023-02-22T05:30:03;6.90;99.90
19920;DHT22;10122;50.074;19.920;2023-02-22T05:32:29;6.90;99.90
19920;DHT22;10122;50.074;19.920;2023-02-22T05:34:55;6.90;99.90
19920;DHT22;10122;50.074;19.920;2023-02-22T05:37:20;6.90;99.90
19920;DHT22;10122;50.074;19.920;2023-02-22T05:39:46;6.90;99.90
19920;DHT22;10122;50.074;19.920;2023-02-22T05:42:12;6.90;99.90
19920;DHT22;10122;50.074;19.920;2023-02-22T05:44:37;6.90;99.90
19920;DHT22;10122;50.074;19.920;2023-02-22T05:47:03;6.90;99.90
19920;DHT22;10122;50.074;19.920;2023-02-22T05:49:29;6.90;99.90
19920;DHT22;10122;50.074;19.920;2023-02-22T05:51:54;6.90;99.90
19920;DHT22;10122;50.074;19.920;2023-02-22T05:54:24;6.80;99.90
19920;DHT22;10122;50.074;19.920;2023-02-22T05:56:50;6.90;99.90
19920;DHT22;10122;50.074;19.920;2023-02-22T05:59:15;6.90;99.90
19920;DHT22;10122;50.074;19.920;2023-02-22T06:01:41;6.90;99.90
19920;DHT22;10122;50.074;19.920;2023-02-22T06:04:07;6.90;99.90
19920;DHT22;10122;50.074;19.920;2023-02-22T06:06:33;6.90;99.90
19920;DHT22;10122;50.074;19.920;2023-02-22T06:08:59;6.90;99.90
19920;DHT22;10122;50.074;19.920;2023-02-22T06:11:25;6.90;99.90
19920;DHT22;10122;50.074;19.920;2023-02-22T06:13:51;6.90;99.90
19920;DHT22;10122;50.074;19.920;2023-02-22T06:16:19;6.90;99.90
19920;DHT22;10122;50.074;19.920;2023-02-22T06:18:46;6.90;99.90
19920;DHT22;10122;50.074;19.920;2023-02-22T06:21:11;6.90;99.90
19920;DHT22;10122;50.074;19.920;2023-02-22T06:23:37;6.90;99.90
19920;DHT22;10122;50.074;19.920;2023-02-22T06:26:03;6.90;99.90
19920;DHT22;10122;50.074;19.920;2023-02-22T06:28:29;7.00;99.90
19920;DHT22;10122;50.074;19.920;2023-02-22T06:30:55;7.00;99.90
19920;DHT22;10122;50.074;19.920;2023-02-22T06:33:21;7.10;99.90
19920;DHT22;10122;50.074;19.920;2023-02-22T06:35:46;7.00;99.90
19920;DHT22;10122;50.074;19.920;2023-02-22T06:38:20;7.00;99.90
19920;DHT22;10122;50.074;19.920;2023-02-22T06:40:46;7.10;99.90
19920;DHT22;10122;50.074;19.920;2023-02-22T06:43:12;7.00;99.90
19920;DHT22;10122;50.074;19.920;2023-02-22T06:45:38;7.00;99.90
19920;DHT22;10122;50.074;19.920;2023-02-22T06:48:03;7.00;99.90
19920;DHT22;10122;50.074;19.920;2023-02-22T06:50:29;7.00;99.90
19920;DHT22;10122;50.074;19.920;2023-02-22T06:52:56;7.00;99.90
19920;DHT22;10122;50.074;19.920;2023-02-22T06:55:25;7.00;99.90
19920;DHT22;10122;50.074;19.920;2023-02-22T06:57:51;7.10;99.90
19920;DHT22;10122;50.074;19.920;2023-02-22T07:00:18;7.10;99.90
19920;DHT22;10122;50.074;19.920;2023-02-22T07:02:45;7.00;99.90
19920;DHT22;10122;50.074;19.920;2023-02-22T07:05:14;7.10;99.90
19920;DHT22;10122;50.074;19.920;2023-02-22T07:07:41;7.10;99.90
19920;DHT22;10122;50.074;19.920;2023-02-22T07:10:14;7.20;99.90
19920;DHT22;10122;50.074;19.920;2023-02-22T07:12:40;7.20;99.90
19920;DHT22;10122;50.074;19.920;2023-02-22T07:15:06;7.30;99.90
19920;DHT22;10122;50.074;19.920;2023-02-22T07:17:31;7.30;99.90
19920;DHT22;10122;50.074;19.920;2023-02-22T07:19:57;7.30;99.90
19920;DHT22;10122;50.074;19.920;2023-02-22T07:22:23;7.40;99.90
19920;DHT22;10122;50.074;19.920;2023-02-22T07:24:49;7.40;99.90
19920;DHT22;10122;50.074;19.920;2023-02-22T07:27:14;7.40;99.90
19920;DHT22;10122;50.074;19.920;2023-02-22T07:29:43;7.40;99.90
19920;DHT22;10122;50.074;19.920;2023-02-22T07:32:09;7.40;99.90
19920;DHT22;10122;50.074;19.920;2023-02-22T07:34:35;7.40;99.90
19920;DHT22;10122;50.074;19.920;2023-02-22T07:37:01;7.40;99.90
19920;DHT22;10122;50.074;19.920;2023-02-22T07:39:27;7.50;99.90
19920;DHT22;10122;50.074;19.920;2023-02-22T07:41:53;7.50;99.90
19920;DHT22;10122;50.074;19.920;2023-02-22T07:44:18;7.60;99.90
19920;DHT22;10122;50.074;19.920;2023-02-22T07:46:47;7.60;99.90
19920;DHT22;10122;50.074;19.920;2023-02-22T07:49:15;7.70;99.90
19920;DHT22;10122;50.074;19.920;2023-02-22T07:51:41;7.70;99.90
19920;DHT22;10122;50.074;19.920;2023-02-22T07:54:06;7.70;99.90
19920;DHT22;10122;50.074;19.920;2023-02-22T07:56:32;7.80;99.90
19920;DHT22;10122;50.074;19.920;2023-02-22T07:58:58;7.80;99.90
19920;DHT22;10122;50.074;19.920;2023-02-22T08:01:25;7.90;99.90
19920;DHT22;10122;50.074;19.920;2023-02-22T08:03:51;7.90;99.90
19920;DHT22;10122;50.074;19.920;2023-02-22T08:06:18;7.90;99.90
19920;DHT22;10122;50.074;19.920;2023-02-22T08:08:45;8.00;99.90
19920;DHT22;10122;50.074;19.920;2023-02-22T08:11:11;8.10;99.90
19920;DHT22;10122;50.074;19.920;2023-02-22T08:13:38;8.10;99.90
19920;DHT22;10122;50.074;19.920;2023-02-22T08:16:04;8.20;99.90
19920;DHT22;10122;50.074;19.920;2023-02-22T08:18:29;8.30;99.90
19920;DHT22;10122;50.074;19.920;2023-02-22T08:20:55;8.30;99.90
19920;DHT22;10122;50.074;19.920;2023-02-22T08:23:23;8.40;99.90
19920;DHT22;10122;50.074;19.920;2023-02-22T08:25:50;8.40;99.90
19920;DHT22;10122;50.074;19.920;2023-02-22T08:28:18;8.50;99.90
19920;DHT22;10122;50.074;19.920;2023-02-22T08:30:46;8.60;99.90
19920;DHT22;10122;50.074;19.920;2023-02-22T08:33:13;8.60;99.90
19920;DHT22;10122;50.074;19.920;2023-02-22T08:35:41;8.60;99.90
19920;DHT22;10122;50.074;19.920;2023-02-22T08:38:13;8.70;99.90
19920;DHT22;10122;50.074;19.920;2023-02-22T08:40:39;8.80;99.90
19920;DHT22;10122;50.074;19.920;2023-02-22T08:43:05;8.90;99.90
19920;DHT22;10122;50.074;19.920;2023-02-22T08:45:38;9.00;99.90
19920;DHT22;10122;50.074;19.920;2023-02-22T08:48:04;9.10;99.90
19920;DHT22;10122;50.074;19.920;2023-02-22T08:50:31;9.20;99.90
19920;DHT22;10122;50.074;19.920;2023-02-22T08:53:02;9.30;99.90
19920;DHT22;10122;50.074;19.920;2023-02-22T08:55:31;9.30;99.90
19920;DHT22;10122;50.074;19.920;2023-02-22T08:57:58;9.30;99.90
19920;DHT22;10122;50.074;19.920;2023-02-22T09:00:26;9.40;99.90
19920;DHT22;10122;50.074;19.920;2023-02-22T09:02:54;9.50;99.90
19920;DHT22;10122;50.074;19.920;2023-02-22T09:05:19;9.50;99.90
19920;DHT22;10122;50.074;19.920;2023-02-22T09:07:46;9.60;99.90
19920;DHT22;10122;50.074;19.920;2023-02-22T09:10:18;9.70;99.90
19920;DHT22;10122;50.074;19.920;2023-02-22T09:12:44;9.70;99.90
19920;DHT22;10122;50.074;19.920;2023-02-22T09:15:11;9.80;99.90
19920;DHT22;10122;50.074;19.920;2023-02-22T09:17:36;9.90;99.90
19920;DHT22;10122;50.074;19.920;2023-02-22T09:20:06;9.90;99.90
19920;DHT22;10122;50.074;19.920;2023-02-22T09:22:32;10.00;99.90
19920;DHT22;10122;50.074;19.920;2023-02-22T09:24:58;10.00;99.90
19920;DHT22;10122;50.074;19.920;2023-02-22T09:27:24;10.00;99.90
19920;DHT22;10122;50.074;19.920;2023-02-22T09:29:53;10.10;99.90
19920;DHT22;10122;50.074;19.920;2023-02-22T09:32:18;10.10;99.90
19920;DHT22;10122;50.074;19.920;2023-02-22T09:34:45;10.10;99.90
19920;DHT22;10122;50.074;19.920;2023-02-22T09:37:12;10.10;99.90
19920;DHT22;10122;50.074;19.920;2023-02-22T09:39:38;10.10;99.90
19920;DHT22;10122;50.074;19.920;2023-02-22T09:42:12;10.10;99.90
19920;DHT22;10122;50.074;19.920;2023-02-22T09:45:02;10.10;99.90
19920;DHT22;10122;50.074;19.920;2023-02-22T09:47:58;10.10;99.90
19920;DHT22;10122;50.074;19.920;2023-02-22T09:50:32;10.00;99.90
19920;DHT22;10122;50.074;19.920;2023-02-22T09:53:50;10.00;99.90
19920;DHT22;10122;50.074;19.920;2023-02-22T09:56:06;10.00;99.90
19920;DHT22;10122;50.074;19.920;2023-02-22T09:58:46;10.10;99.90
19920;DHT22;10122;50.074;19.920;2023-02-22T10:09:18;10.10;99.90
19920;DHT22;10122;50.074;19.920;2023-02-22T10:14:59;10.30;99.90
19920;DHT22;10122;50.074;19.920;2023-02-22T10:25:30;10.60;99.90
19920;DHT22;10122;50.074;19.920;2023-02-22T10:28:20;10.70;99.90
19920;DHT22;10122;50.074;19.920;2023-02-22T10:30:49;10.80;99.90
19920;DHT22;10122;50.074;19.920;2023-02-22T10:33:21;11.00;99.90
19920;DHT22;10122;50.074;19.920;2023-02-22T10:35:48;11.30;99.90
19920;DHT22;10122;50.074;19.920;2023-02-22T10:38:28;11.60;99.90
19920;DHT22;10122;50.074;19.920;2023-02-22T10:43:42;12.40;99.90
19920;DHT22;10122;50.074;19.920;2023-02-22T10:46:11;12.70;99.90
19920;DHT22;10122;50.074;19.920;2023-02-22T10:48:39;12.90;99.90
19920;DHT22;10122;50.074;19.920;2023-02-22T10:51:07;13.00;99.90
19920;DHT22;10122;50.074;19.920;2023-02-22T10:53:34;13.30;99.90
19920;DHT22;10122;50.074;19.920;2023-02-22T10:56:23;13.40;99.90
19920;DHT22;10122;50.074;19.920;2023-02-22T11:01:32;13.30;99.90
19920;DHT22;10122;50.074;19.920;2023-02-22T11:06:36;13.00;99.90
19920;DHT22;10122;50.074;19.920;2023-02-22T11:09:15;12.90;99.90
19920;DHT22;10122;50.074;19.920;2023-02-22T11:11:45;12.70;99.90
19920;DHT22;10122;50.074;19.920;2023-02-22T11:14:13;12.50;99.90
19920;DHT22;10122;50.074;19.920;2023-02-22T11:16:51;12.40;99.90
19920;DHT22;10122;50.074;19.920;2023-02-22T11:19:28;12.30;99.90
19920;DHT22;10122;50.074;19.920;2023-02-22T11:22:07;12.20;99.90
19920;DHT22;10122;50.074;19.920;2023-02-22T11:24:44;12.10;99.90
19920;DHT22;10122;50.074;19.920;2023-02-22T11:29:56;11.90;99.90
19920;DHT22;10122;50.074;19.920;2023-02-22T11:32:30;11.90;99.90
19920;DHT22;10122;50.074;19.920;2023-02-22T11:36:01;11.80;99.90
19920;DHT22;10122;50.074;19.920;2023-02-22T11:40:41;11.80;99.90
19920;DHT22;10122;50.074;19.920;2023-02-22T11:43:18;11.70;99.90
19920;DHT22;10122;50.074;19.920;2023-02-22T11:46:18;11.70;99.90
19920;DHT22;10122;50.074;19.920;2023-02-22T11:49:02;11.70;99.90
19920;DHT22;10122;50.074;19.920;2023-02-22T11:57:10;11.60;99.90
19920;DHT22;10122;50.074;19.920;2023-02-22T12:07:56;11.60;99.90
19920;DHT22;10122;50.074;19.920;2023-02-22T12:16:33;11.70;99.90
19920;DHT22;10122;50.074;19.920;2023-02-22T12:19:14;11.70;99.90
19920;DHT22;10122;50.074;19.920;2023-02-22T12:21:52;11.80;99.90
19920;DHT22;10122;50.074;19.920;2023-02-22T12:24:22;11.80;99.90
19920;DHT22;10122;50.074;19.920;2023-02-22T12:27:00;11.70;99.90
19920;DHT22;10122;50.074;19.920;2023-02-22T12:29:35;11.70;99.90
19920;DHT22;10122;50.074;19.920;2023-02-22T12:34:37;11.60;99.90
19920;DHT22;10122;50.074;19.920;2023-02-22T12:37:18;11.60;99.90
19920;DHT22;10122;50.074;19.920;2023-02-22T12:39:52;11.60;99.90
19920;DHT22;10122;50.074;19.920;2023-02-22T12:45:02;11.70;99.90
19920;DHT22;10122;50.074;19.920;2023-02-22T12:48:14;11.70;99.90
19920;DHT22;10122;50.074;19.920;2023-02-22T12:50:34;11.60;99.90
19920;DHT22;10122;50.074;19.920;2023-02-22T12:53:17;11.60;99.90
19920;DHT22;10122;50.074;19.920;2023-02-22T12:55:51;11.50;99.90
19920;DHT22;10122;50.074;19.920;2023-02-22T12:58:42;11.40;99.90
19920;DHT22;10122;50.074;19.920;2023-02-22T13:01:17;11.40;99.90
19920;DHT22;10122;50.074;19.920;2023-02-22T13:03:44;11.50;99.90
19920;DHT22;10122;50.074;19.920;2023-02-22T13:11:52;11.80;99.90
19920;DHT22;10122;50.074;19.920;2023-02-22T13:17:48;11.80;99.90
19920;DHT22;10122;50.074;19.920;2023-02-22T13:20:22;11.80;99.90
19920;DHT22;10122;50.074;19.920;2023-02-22T13:23:57;11.80;99.90
19920;DHT22;10122;50.074;19.920;2023-02-22T13:25:57;11.80;99.90
19920;DHT22;10122;50.074;19.920;2023-02-22T13:28:45;11.70;99.90
19920;DHT22;10122;50.074;19.920;2023-02-22T13:48:05;11.00;99.90
19920;DHT22;10122;50.074;19.920;2023-02-22T13:53:24;10.70;99.90
19920;DHT22;10122;50.074;19.920;2023-02-22T13:55:54;10.70;99.90
19920;DHT22;10122;50.074;19.920;2023-02-22T13:58:22;10.80;99.90
19920;DHT22;10122;50.074;19.920;2023-02-22T14:00:56;10.80;99.90
19920;DHT22;10122;50.074;19.920;2023-02-22T14:03:31;10.80;99.90
19920;DHT22;10122;50.074;19.920;2023-02-22T14:08:48;10.80;99.90
19920;DHT22;10122;50.074;19.920;2023-02-22T14:16:29;10.70;99.90
19920;DHT22;10122;50.074;19.920;2023-02-22T14:19:15;10.70;99.90
19920;DHT22;10122;50.074;19.920;2023-02-22T14:24:20;10.60;99.90
19920;DHT22;10122;50.074;19.920;2023-02-22T14:27:12;10.50;99.90
19920;DHT22;10122;50.074;19.920;2023-02-22T14:29:50;10.50;99.90
19920;DHT22;10122;50.074;19.920;2023-02-22T14:32:18;10.50;99.90
19920;DHT22;10122;50.074;19.920;2023-02-22T14:34:54;10.40;99.90
19920;DHT22;10122;50.074;19.920;2023-02-22T14:37:34;10.40;99.90
19920;DHT22;10122;50.074;19.920;2023-02-22T14:42:48;10.40;99.90
19920;DHT22;10122;50.074;19.920;2023-02-22T14:45:31;10.40;99.90
19920;DHT22;10122;50.074;19.920;2023-02-22T14:48:23;10.40;99.90
19920;DHT22;10122;50.074;19.920;2023-02-22T14:50:56;10.40;99.90
19920;DHT22;10122;50.074;19.920;2023-02-22T14:53:46;10.40;99.90
19920;DHT22;10122;50.074;19.920;2023-02-22T14:56:14;10.30;99.90
19920;DHT22;10122;50.074;19.920;2023-02-22T15:03:47;10.10;99.90
19920;DHT22;10122;50.074;19.920;2023-02-22T15:06:19;10.10;99.90
19920;DHT22;10122;50.074;19.920;2023-02-22T15:08:46;10.10;99.90
19920;DHT22;10122;50.074;19.920;2023-02-22T15:11:21;10.10;99.90
19920;DHT22;10122;50.074;19.920;2023-02-22T15:13:53;10.00;99.90
19920;DHT22;10122;50.074;19.920;2023-02-22T15:16:20;9.90;99.90
19920;DHT22;10122;50.074;19.920;2023-02-22T15:18:48;10.00;99.90
19920;DHT22;10122;50.074;19.920;2023-02-22T15:21:20;10.00;99.90
19920;DHT22;10122;50.074;19.920;2023-02-22T15:23:51;9.90;99.90
19920;DHT22;10122;50.074;19.920;2023-02-22T15:26:32;9.90;99.90
19920;DHT22;10122;50.074;19.920;2023-02-22T15:29:00;9.80;99.90
19920;DHT22;10122;50.074;19.920;2023-02-22T15:31:33;9.80;99.90
19920;DHT22;10122;50.074;19.920;2023-02-22T15:34:29;9.80;99.90
19920;DHT22;10122;50.074;19.920;2023-02-22T15:37:00;9.70;99.90
19920;DHT22;10122;50.074;19.920;2023-02-22T15:39:33;9.70;99.90
19920;DHT22;10122;50.074;19.920;2023-02-22T15:44:40;9.50;99.90
19920;DHT22;10122;50.074;19.920;2023-02-22T15:47:27;9.50;99.90
19920;DHT22;10122;50.074;19.920;2023-02-22T15:50:31;9.40;99.90
19920;DHT22;10122;50.074;19.920;2023-02-22T15:52:59;9.40;99.90
19920;DHT22;10122;50.074;19.920;2023-02-22T15:55:37;9.40;99.90
19920;DHT22;10122;50.074;19.920;2023-02-22T15:58:23;9.30;99.90
19920;DHT22;10122;50.074;19.920;2023-02-22T16:00:58;9.20;99.90
19920;DHT22;10122;50.074;19.920;2023-02-22T16:03:25;9.20;99.90
19920;DHT22;10122;50.074;19.920;2023-02-22T16:05:58;9.20;99.90
19920;DHT22;10122;50.074;19.920;2023-02-22T16:08:25;9.20;99.90
19920;DHT22;10122;50.074;19.920;2023-02-22T16:11:03;9.10;99.90
19920;DHT22;10122;50.074;19.920;2023-02-22T16:13:33;9.10;99.90
19920;DHT22;10122;50.074;19.920;2023-02-22T16:16:18;9.00;99.90
19920;DHT22;10122;50.074;19.920;2023-02-22T16:18:46;8.90;99.90
19920;DHT22;10122;50.074;19.920;2023-02-22T16:21:14;8.90;99.90
19920;DHT22;10122;50.074;19.920;2023-02-22T16:23:45;8.80;99.90
19920;DHT22;10122;50.074;19.920;2023-02-22T16:26:32;8.80;99.90
19920;DHT22;10122;50.074;19.920;2023-02-22T16:29:04;8.80;99.90
19920;DHT22;10122;50.074;19.920;2023-02-22T16:31:32;8.70;99.90
19920;DHT22;10122;50.074;19.920;2023-02-22T16:34:00;8.70;99.90
19920;DHT22;10122;50.074;19.920;2023-02-22T16:39:07;8.50;99.90
19920;DHT22;10122;50.074;19.920;2023-02-22T16:41:33;8.50;99.90
19920;DHT22;10122;50.074;19.920;2023-02-22T16:43:59;8.50;99.90
19920;DHT22;10122;50.074;19.920;2023-02-22T16:46:25;8.50;99.90
19920;DHT22;10122;50.074;19.920;2023-02-22T16:48:50;8.40;99.90
19920;DHT22;10122;50.074;19.920;2023-02-22T16:51:25;8.40;99.90
19920;DHT22;10122;50.074;19.920;2023-02-22T16:53:53;8.40;99.90
19920;DHT22;10122;50.074;19.920;2023-02-22T16:56:26;8.30;99.90
19920;DHT22;10122;50.074;19.920;2023-02-22T16:58:52;8.30;99.90
19920;DHT22;10122;50.074;19.920;2023-02-22T17:01:18;8.20;99.90
19920;DHT22;10122;50.074;19.920;2023-02-22T17:03:44;8.20;99.90
19920;DHT22;10122;50.074;19.920;2023-02-22T17:06:11;8.20;99.90
19920;DHT22;10122;50.074;19.920;2023-02-22T17:08:38;8.20;99.90
19920;DHT22;10122;50.074;19.920;2023-02-22T17:11:05;8.10;99.90
19920;DHT22;10122;50.074;19.920;2023-02-22T17:13:31;8.10;99.90
19920;DHT22;10122;50.074;19.920;2023-02-22T17:15:57;8.10;99.90
19920;DHT22;10122;50.074;19.920;2023-02-22T17:18:25;8.10;99.90
19920;DHT22;10122;50.074;19.920;2023-02-22T17:20:53;8.10;99.90
19920;DHT22;10122;50.074;19.920;2023-02-22T17:23:23;8.20;99.90
19920;DHT22;10122;50.074;19.920;2023-02-22T17:25:54;8.10;99.90
19920;DHT22;10122;50.074;19.920;2023-02-22T17:28:21;8.10;99.90
19920;DHT22;10122;50.074;19.920;2023-02-22T17:30:48;8.10;99.90
19920;DHT22;10122;50.074;19.920;2023-02-22T17:33:17;8.10;99.90
19920;DHT22;10122;50.074;19.920;2023-02-22T17:35:44;8.10;99.90
19920;DHT22;10122;50.074;19.920;2023-02-22T17:38:12;8.00;99.90
19920;DHT22;10122;50.074;19.920;2023-02-22T17:40:39;8.00;99.90
19920;DHT22;10122;50.074;19.920;2023-02-22T17:43:06;7.90;99.90
19920;DHT22;10122;50.074;19.920;2023-02-22T17:45:36;7.90;99.90
19920;DHT22;10122;50.074;19.920;2023-02-22T17:48:02;7.90;99.90
19920;DHT22;10122;50.074;19.920;2023-02-22T17:50:28;7.90;99.90
19920;DHT22;10122;50.074;19.920;2023-02-22T17:52:56;7.90;99.90
19920;DHT22;10122;50.074;19.920;2023-02-22T17:55:22;7.80;99.90
19920;DHT22;10122;50.074;19.920;2023-02-22T17:57:55;7.70;99.90
19920;DHT22;10122;50.074;19.920;2023-02-22T18:00:26;7.60;99.90
19920;DHT22;10122;50.074;19.920;2023-02-22T18:03:02;7.60;99.90